sensor_id;sensor_type;location;lat;lon;timestamp;pressure;altitude;pressure_sealevel;temperature;humidity
49611;BME280;35515;48.766;9.176;2023-01-28T00:00:14;98943.06;;;1.02;77.50
49611;BME280;35515;48.766;9.176;2023-01-28T00:02:40;98950.81;;;1.14;77.36
49611;BME280;35515;48.766;9.176;2023-01-28T00:05:09;98962.56;;;1.02;77.77
49611;BME280;35515;48.766;9.176;2023-01-28T00:07:36;98954.53;;;0.92;77.28
49611;BME280;35515;48.766;9.176;2023-01-28T00:10:03;98957.72;;;0.86;78.37
49611;BME280;35515;48.766;9.176;2023-01-28T00:12:29;98951.28;;;0.89;78.32
49611;BME280;35515;48.766;9.176;2023-01-28T00:14:56;98944.19;;;0.99;77.88
49611;BME280;35515;48.766;9.176;2023-01-28T00:17:22;98938.13;;;0.97;77.67
49611;BME280;35515;48.766;9.176;2023-01-28T00:19:49;98942.00;;;0.83;78.59
49611;BME280;35515;48.766;9.176;2023-01-28T00:22:17;98950.38;;;0.78;79.27
49611;BME280;35515;48.766;9.176;2023-01-28T00:24:44;98952.38;;;0.86;78.57
49611;BME280;35515;48.766;9.176;2023-01-28T00:27:11;98950.53;;;0.87;78.12
49611;BME280;35515;48.766;9.176;2023-01-28T00:29:37;98948.78;;;0.97;77.34
49611;BME280;35515;48.766;9.176;2023-01-28T00:32:04;98948.09;;;0.95;77.77
49611;BME280;35515;48.766;9.176;2023-01-28T00:34:31;98944.34;;;1.07;77.43
49611;BME280;35515;48.766;9.176;2023-01-28T00:36:57;98949.38;;;1.00;78.04
49611;BME280;35515;48.766;9.176;2023-01-28T00:39:25;98930.47;;;1.13;76.84
49611;BME280;35515;48.766;9.176;2023-01-28T00:41:52;98936.16;;;0.99;77.52
49611;BME280;35515;48.766;9.176;2023-01-28T00:44:19;98933.22;;;1.02;77.55
49611;BME280;35515;48.766;9.176;2023-01-28T00:46:46;98934.38;;;0.78;78.92
49611;BME280;35515;48.766;9.176;2023-01-28T00:49:13;98932.34;;;0.71;78.81
49611;BME280;35515;48.766;9.176;2023-01-28T00:51:40;98931.13;;;0.75;79.60
49611;BME280;35515;48.766;9.176;2023-01-28T00:54:06;98930.25;;;0.95;77.74
49611;BME280;35515;48.766;9.176;2023-01-28T00:56:34;98932.31;;;0.92;78.67
49611;BME280;35515;48.766;9.176;2023-01-28T00:59:02;98931.06;;;0.96;78.38
49611;BME280;35515;48.766;9.176;2023-01-28T01:01:28;98937.31;;;1.06;77.80
49611;BME280;35515;48.766;9.176;2023-01-28T01:03:55;98934.84;;;0.93;78.55
49611;BME280;35515;48.766;9.176;2023-01-28T01:06:26;98937.66;;;0.92;78.12
49611;BME280;35515;48.766;9.176;2023-01-28T01:08:53;98929.31;;;0.75;79.14
49611;BME280;35515;48.766;9.176;2023-01-28T01:11:20;98932.88;;;0.86;79.14
49611;BME280;35515;48.766;9.176;2023-01-28T01:13:52;98935.53;;;0.86;79.00
49611;BME280;35515;48.766;9.176;2023-01-28T01:16:21;98932.19;;;0.93;78.18
49611;BME280;35515;48.766;9.176;2023-01-28T01:18:49;98937.78;;;0.90;78.73
49611;BME280;35515;48.766;9.176;2023-01-28T01:21:18;98940.09;;;0.95;78.58
49611;BME280;35515;48.766;9.176;2023-01-28T01:23:45;98940.59;;;0.89;77.99
49611;BME280;35515;48.766;9.176;2023-01-28T01:26:12;98943.28;;;0.89;78.69
49611;BME280;35515;48.766;9.176;2023-01-28T01:28:39;98948.16;;;0.83;78.23
49611;BME280;35515;48.766;9.176;2023-01-28T01:31:09;98954.66;;;0.91;79.19
49611;BME280;35515;48.766;9.176;2023-01-28T01:33:38;98952.50;;;0.85;78.48
49611;BME280;35515;48.766;9.176;2023-01-28T01:36:05;98950.16;;;0.91;78.85
49611;BME280;35515;48.766;9.176;2023-01-28T01:38:32;98950.03;;;0.93;78.51
49611;BME280;35515;48.766;9.176;2023-01-28T01:41:00;98950.16;;;0.91;78.75
49611;BME280;35515;48.766;9.176;2023-01-28T01:43:45;98955.63;;;0.90;79.18
49611;BME280;35515;48.766;9.176;2023-01-28T01:46:14;98952.50;;;0.85;79.07
49611;BME280;35515;48.766;9.176;2023-01-28T01:48:42;98946.56;;;1.02;78.76
49611;BME280;35515;48.766;9.176;2023-01-28T01:51:11;98955.59;;;1.11;78.18
49611;BME280;35515;48.766;9.176;2023-01-28T01:53:41;98949.69;;;1.07;78.33
49611;BME280;35515;48.766;9.176;2023-01-28T01:56:12;98951.59;;;0.95;78.88
49611;BME280;35515;48.766;9.176;2023-01-28T01:58:41;98956.59;;;1.10;78.15
49611;BME280;35515;48.766;9.176;2023-01-28T02:01:10;98955.28;;;1.04;78.25
49611;BME280;35515;48.766;9.176;2023-01-28T02:03:45;98958.44;;;1.19;77.86
49611;BME280;35515;48.766;9.176;2023-01-28T02:06:13;98965.09;;;1.04;78.61
49611;BME280;35515;48.766;9.176;2023-01-28T02:08:40;98959.47;;;0.97;79.11
49611;BME280;35515;48.766;9.176;2023-01-28T02:11:09;98956.34;;;0.92;78.85
49611;BME280;35515;48.766;9.176;2023-01-28T02:13:40;98950.47;;;0.98;78.91
49611;BME280;35515;48.766;9.176;2023-01-28T02:16:09;98948.25;;;1.03;78.07
49611;BME280;35515;48.766;9.176;2023-01-28T02:18:38;98956.75;;;0.87;79.40
49611;BME280;35515;48.766;9.176;2023-01-28T02:21:35;98957.72;;;0.86;80.09
49611;BME280;35515;48.766;9.176;2023-01-28T02:27:23;98955.81;;;0.98;79.38
49611;BME280;35515;48.766;9.176;2023-01-28T02:29:58;98960.63;;;1.04;79.26
49611;BME280;35515;48.766;9.176;2023-01-28T02:32:35;98958.38;;;1.09;79.24
49611;BME280;35515;48.766;9.176;2023-01-28T02:35:07;98960.19;;;0.99;79.76
49611;BME280;35515;48.766;9.176;2023-01-28T02:37:41;98964.53;;;1.00;80.43
49611;BME280;35515;48.766;9.176;2023-01-28T02:40:13;98958.47;;;0.98;79.89
49611;BME280;35515;48.766;9.176;2023-01-28T02:42:42;98956.59;;;1.10;79.62
49611;BME280;35515;48.766;9.176;2023-01-28T02:45:22;98959.63;;;1.05;79.45
49611;BME280;35515;48.766;9.176;2023-01-28T02:48:10;98965.75;;;0.96;79.59
49611;BME280;35515;48.766;9.176;2023-01-28T02:50:45;98966.75;;;0.95;79.83
49611;BME280;35515;48.766;9.176;2023-01-28T02:53:19;98965.25;;;1.02;79.73
49611;BME280;35515;48.766;9.176;2023-01-28T02:56:13;98969.47;;;1.05;80.20
49611;BME280;35515;48.766;9.176;2023-01-28T02:58:45;98965.53;;;0.99;79.74
49611;BME280;35515;48.766;9.176;2023-01-28T03:01:18;98973.69;;;1.07;79.59
49611;BME280;35515;48.766;9.176;2023-01-28T03:03:57;98980.91;;;1.16;79.37
49611;BME280;35515;48.766;9.176;2023-01-28T03:06:28;98976.69;;;1.14;79.04
49611;BME280;35515;48.766;9.176;2023-01-28T03:08:59;98972.72;;;1.08;79.78
49611;BME280;35515;48.766;9.176;2023-01-28T03:11:47;98975.09;;;1.02;80.21
49611;BME280;35515;48.766;9.176;2023-01-28T03:14:34;98971.06;;;0.86;81.45
49611;BME280;35515;48.766;9.176;2023-01-28T03:17:23;98979.06;;;0.86;81.48
49611;BME280;35515;48.766;9.176;2023-01-28T03:20:10;98971.31;;;1.04;81.09
49611;BME280;35515;48.766;9.176;2023-01-28T03:22:58;98973.91;;;1.25;79.79
49611;BME280;35515;48.766;9.176;2023-01-28T03:25:45;98972.72;;;1.08;80.58
49611;BME280;35515;48.766;9.176;2023-01-28T03:28:34;98967.88;;;0.92;82.52
49611;BME280;35515;48.766;9.176;2023-01-28T03:31:20;98975.59;;;0.95;82.58
49611;BME280;35515;48.766;9.176;2023-01-28T03:34:07;98975.41;;;1.08;82.42
49611;BME280;35515;48.766;9.176;2023-01-28T03:36:53;98965.19;;;1.13;82.77
49611;BME280;35515;48.766;9.176;2023-01-28T03:39:22;98972.66;;;0.98;83.75
49611;BME280;35515;48.766;9.176;2023-01-28T03:42:00;98978.28;;;0.95;84.29
49611;BME280;35515;48.766;9.176;2023-01-28T03:44:27;98983.41;;;0.87;85.18
49611;BME280;35515;48.766;9.176;2023-01-28T03:47:12;98980.34;;;0.92;85.06
49611;BME280;35515;48.766;9.176;2023-01-28T03:49:40;98989.13;;;1.04;84.37
49611;BME280;35515;48.766;9.176;2023-01-28T03:52:08;98989.34;;;0.91;85.03
49611;BME280;35515;48.766;9.176;2023-01-28T03:54:34;98994.31;;;1.05;84.57
49611;BME280;35515;48.766;9.176;2023-01-28T03:57:01;98999.88;;;0.92;85.62
49611;BME280;35515;48.766;9.176;2023-01-28T03:59:27;98993.03;;;0.78;86.50
49611;BME280;35515;48.766;9.176;2023-01-28T04:01:54;98987.84;;;0.98;85.20
49611;BME280;35515;48.766;9.176;2023-01-28T04:04:21;98995.78;;;0.88;85.77
49611;BME280;35515;48.766;9.176;2023-01-28T04:06:51;98979.97;;;0.96;85.41
49611;BME280;35515;48.766;9.176;2023-01-28T04:09:18;98985.91;;;1.00;85.90
49611;BME280;35515;48.766;9.176;2023-01-28T04:11:45;98992.53;;;0.85;86.53
49611;BME280;35515;48.766;9.176;2023-01-28T04:14:12;98988.56;;;0.79;86.89
49611;BME280;35515;48.766;9.176;2023-01-28T04:16:39;98995.00;;;0.76;87.31
49611;BME280;35515;48.766;9.176;2023-01-28T04:19:06;98997.03;;;0.84;86.66
49611;BME280;35515;48.766;9.176;2023-01-28T04:21:32;99000.03;;;0.91;86.65
49611;BME280;35515;48.766;9.176;2023-01-28T04:24:00;98997.41;;;1.00;86.03
49611;BME280;35515;48.766;9.176;2023-01-28T04:26:27;99001.03;;;0.99;86.18
49611;BME280;35515;48.766;9.176;2023-01-28T04:28:54;99005.78;;;0.96;86.23
49611;BME280;35515;48.766;9.176;2023-01-28T04:31:20;99010.34;;;1.05;85.58
49611;BME280;35515;48.766;9.176;2023-01-28T04:33:48;99010.78;;;1.10;85.85
49611;BME280;35515;48.766;9.176;2023-01-28T04:36:14;99009.81;;;1.11;85.77
49611;BME280;35515;48.766;9.176;2023-01-28T04:38:41;99024.69;;;1.04;86.00
49611;BME280;35515;48.766;9.176;2023-01-28T04:41:09;99017.19;;;0.98;86.70
49611;BME280;35515;48.766;9.176;2023-01-28T04:43:35;99023.44;;;1.08;86.21
49611;BME280;35515;48.766;9.176;2023-01-28T04:46:02;99029.38;;;0.91;87.32
49611;BME280;35515;48.766;9.176;2023-01-28T04:48:28;99024.91;;;1.01;86.24
49611;BME280;35515;48.766;9.176;2023-01-28T04:50:56;99021.22;;;0.92;86.89
49611;BME280;35515;48.766;9.176;2023-01-28T04:53:23;99035.59;;;1.01;87.06
49611;BME280;35515;48.766;9.176;2023-01-28T04:55:49;99027.66;;;0.90;87.53
49611;BME280;35515;48.766;9.176;2023-01-28T04:58:17;99029.38;;;0.91;87.91
49611;BME280;35515;48.766;9.176;2023-01-28T05:00:43;99026.44;;;0.94;87.22
49611;BME280;35515;48.766;9.176;2023-01-28T05:03:10;99029.38;;;0.91;87.84
49611;BME280;35515;48.766;9.176;2023-01-28T05:05:36;99034.09;;;1.08;86.78
49611;BME280;35515;48.766;9.176;2023-01-28T05:08:03;99037.81;;;0.96;87.44
49611;BME280;35515;48.766;9.176;2023-01-28T05:10:30;99038.41;;;0.99;87.18
49611;BME280;35515;48.766;9.176;2023-01-28T05:12:56;99043.72;;;0.99;88.02
49611;BME280;35515;48.766;9.176;2023-01-28T05:15:24;99048.22;;;0.99;88.23
49611;BME280;35515;48.766;9.176;2023-01-28T05:17:53;99046.81;;;0.95;88.22
49611;BME280;35515;48.766;9.176;2023-01-28T05:20:20;99039.56;;;0.86;89.31
49611;BME280;35515;48.766;9.176;2023-01-28T05:22:46;99037.81;;;0.96;88.74
49611;BME280;35515;48.766;9.176;2023-01-28T05:25:13;99042.25;;;0.86;89.75
49611;BME280;35515;48.766;9.176;2023-01-28T05:27:39;99044.06;;;1.06;88.97
49611;BME280;35515;48.766;9.176;2023-01-28T05:30:07;99044.19;;;1.05;88.68
49611;BME280;35515;48.766;9.176;2023-01-28T05:32:35;99036.44;;;1.02;89.22
49611;BME280;35515;48.766;9.176;2023-01-28T05:35:02;99028.81;;;0.97;88.91
49611;BME280;35515;48.766;9.176;2023-01-28T05:37:28;99030.91;;;0.93;89.13
49611;BME280;35515;48.766;9.176;2023-01-28T05:39:55;99040.47;;;0.96;89.19
49611;BME280;35515;48.766;9.176;2023-01-28T05:42:21;99032.13;;;0.89;89.91
49611;BME280;35515;48.766;9.176;2023-01-28T05:44:48;99034.38;;;0.84;89.89
49611;BME280;35515;48.766;9.176;2023-01-28T05:47:14;99033.84;;;0.90;89.45
49611;BME280;35515;48.766;9.176;2023-01-28T05:49:42;99036.84;;;0.97;89.20
49611;BME280;35515;48.766;9.176;2023-01-28T05:52:08;99044.25;;;0.93;89.50
49611;BME280;35515;48.766;9.176;2023-01-28T05:54:35;99039.19;;;0.90;90.02
49611;BME280;35515;48.766;9.176;2023-01-28T05:57:01;99039.13;;;1.02;89.34
49611;BME280;35515;48.766;9.176;2023-01-28T05:59:28;99039.03;;;0.92;90.19
49611;BME280;35515;48.766;9.176;2023-01-28T06:01:55;99043.72;;;0.99;89.78
49611;BME280;35515;48.766;9.176;2023-01-28T06:04:21;99053.56;;;0.99;89.54
49611;BME280;35515;48.766;9.176;2023-01-28T06:06:49;99053.25;;;0.92;90.26
49611;BME280;35515;48.766;9.176;2023-01-28T06:09:16;99054.09;;;0.93;89.48
49611;BME280;35515;48.766;9.176;2023-01-28T06:11:42;99053.81;;;0.96;89.19
49611;BME280;35515;48.766;9.176;2023-01-28T06:14:09;99053.44;;;1.00;88.96
49611;BME280;35515;48.766;9.176;2023-01-28T06:16:36;99060.06;;;1.06;88.85
49611;BME280;35515;48.766;9.176;2023-01-28T06:19:02;99058.91;;;0.99;88.87
49611;BME280;35515;48.766;9.176;2023-01-28T06:21:29;99067.09;;;1.07;88.60
49611;BME280;35515;48.766;9.176;2023-01-28T06:23:57;99069.31;;;1.02;89.59
49611;BME280;35515;48.766;9.176;2023-01-28T06:26:23;99080.81;;;1.03;89.21
49611;BME280;35515;48.766;9.176;2023-01-28T06:28:50;99087.25;;;1.21;88.11
49611;BME280;35515;48.766;9.176;2023-01-28T06:31:16;99089.09;;;1.21;87.90
49611;BME280;35515;48.766;9.176;2023-01-28T06:33:43;99096.69;;;1.25;87.51
49611;BME280;35515;48.766;9.176;2023-01-28T06:36:09;99090.25;;;1.28;86.67
49611;BME280;35515;48.766;9.176;2023-01-28T06:38:36;99095.69;;;1.16;87.60
49611;BME280;35515;48.766;9.176;2023-01-28T06:41:04;99101.06;;;1.05;88.78
49611;BME280;35515;48.766;9.176;2023-01-28T06:43:30;99092.63;;;1.00;88.75
49611;BME280;35515;48.766;9.176;2023-01-28T06:45:57;99099.44;;;1.14;88.14
49611;BME280;35515;48.766;9.176;2023-01-28T06:48:24;99102.38;;;1.11;87.88
49611;BME280;35515;48.766;9.176;2023-01-28T06:50:51;99106.34;;;1.16;87.87
49611;BME280;35515;48.766;9.176;2023-01-28T06:53:18;99111.38;;;1.31;87.29
49611;BME280;35515;48.766;9.176;2023-01-28T06:55:45;99108.69;;;1.31;87.10
49611;BME280;35515;48.766;9.176;2023-01-28T06:58:13;99110.50;;;1.30;87.05
49611;BME280;35515;48.766;9.176;2023-01-28T07:00:40;99115.06;;;1.19;87.69
49611;BME280;35515;48.766;9.176;2023-01-28T07:03:06;99118.59;;;1.19;87.78
49611;BME280;35515;48.766;9.176;2023-01-28T07:05:33;99114.63;;;1.13;88.73
49611;BME280;35515;48.766;9.176;2023-01-28T07:07:59;99103.97;;;1.13;88.89
49611;BME280;35515;48.766;9.176;2023-01-28T07:10:26;99112.78;;;1.35;87.49
49611;BME280;35515;48.766;9.176;2023-01-28T07:12:52;99113.59;;;1.26;88.23
49611;BME280;35515;48.766;9.176;2023-01-28T07:15:20;99119.56;;;1.18;88.63
49611;BME280;35515;48.766;9.176;2023-01-28T07:17:47;99121.41;;;1.17;88.62
49611;BME280;35515;48.766;9.176;2023-01-28T07:20:14;99119.84;;;1.36;87.81
49611;BME280;35515;48.766;9.176;2023-01-28T07:22:42;99128.16;;;1.22;88.78
49611;BME280;35515;48.766;9.176;2023-01-28T07:25:09;99128.16;;;1.22;88.20
49611;BME280;35515;48.766;9.176;2023-01-28T07:27:36;99132.72;;;1.31;87.79
49611;BME280;35515;48.766;9.176;2023-01-28T07:30:03;99131.47;;;1.14;88.35
49611;BME280;35515;48.766;9.176;2023-01-28T07:32:31;99131.34;;;1.15;88.97
49611;BME280;35515;48.766;9.176;2023-01-28T07:34:58;99136.22;;;1.10;90.12
49611;BME280;35515;48.766;9.176;2023-01-28T07:37:24;99141.19;;;1.36;88.54
49611;BME280;35515;48.766;9.176;2023-01-28T07:39:51;99135.84;;;1.15;89.09
49611;BME280;35515;48.766;9.176;2023-01-28T07:42:17;99132.31;;;1.14;89.60
49611;BME280;35515;48.766;9.176;2023-01-28T07:44:44;99145.75;;;1.24;89.14
49611;BME280;35515;48.766;9.176;2023-01-28T07:47:10;99129.53;;;1.16;89.54
49611;BME280;35515;48.766;9.176;2023-01-28T07:49:38;99136.38;;;1.30;89.15
49611;BME280;35515;48.766;9.176;2023-01-28T07:52:05;99138.94;;;1.41;88.09
49611;BME280;35515;48.766;9.176;2023-01-28T07:54:31;99144.84;;;1.35;88.49
49611;BME280;35515;48.766;9.176;2023-01-28T07:56:58;99142.50;;;1.42;88.87
49611;BME280;35515;48.766;9.176;2023-01-28T07:59:24;99146.31;;;1.28;88.61
49611;BME280;35515;48.766;9.176;2023-01-28T08:01:51;99148.97;;;1.28;89.24
49611;BME280;35515;48.766;9.176;2023-01-28T08:04:18;99155.25;;;1.38;88.93
49611;BME280;35515;48.766;9.176;2023-01-28T08:06:46;99160.06;;;1.44;88.24
49611;BME280;35515;48.766;9.176;2023-01-28T08:09:12;99161.63;;;1.26;89.69
49611;BME280;35515;48.766;9.176;2023-01-28T08:11:39;99163.91;;;1.30;88.72
49611;BME280;35515;48.766;9.176;2023-01-28T08:14:06;99162.59;;;1.25;89.32
49611;BME280;35515;48.766;9.176;2023-01-28T08:16:33;99162.28;;;1.18;90.15
49611;BME280;35515;48.766;9.176;2023-01-28T08:18:59;99161.44;;;1.17;89.94
49611;BME280;35515;48.766;9.176;2023-01-28T08:21:27;99166.50;;;1.21;90.31
49611;BME280;35515;48.766;9.176;2023-01-28T08:23:55;99172.34;;;1.14;90.58
49611;BME280;35515;48.766;9.176;2023-01-28T08:26:21;99158.16;;;1.14;90.26
49611;BME280;35515;48.766;9.176;2023-01-28T08:28:48;99169.94;;;1.11;90.79
49611;BME280;35515;48.766;9.176;2023-01-28T08:31:14;99163.63;;;1.12;90.70
49611;BME280;35515;48.766;9.176;2023-01-28T08:33:41;99169.19;;;1.42;89.56
49611;BME280;35515;48.766;9.176;2023-01-28T08:36:08;99166.31;;;1.33;89.58
49611;BME280;35515;48.766;9.176;2023-01-28T08:38:35;99165.47;;;1.33;89.80
49611;BME280;35515;48.766;9.176;2023-01-28T08:41:03;99175.16;;;1.34;89.72
49611;BME280;35515;48.766;9.176;2023-01-28T08:43:29;99170.44;;;1.38;89.09
49611;BME280;35515;48.766;9.176;2023-01-28T08:45:56;99170.03;;;1.42;89.19
49611;BME280;35515;48.766;9.176;2023-01-28T08:48:22;99169.88;;;1.44;88.34
49611;BME280;35515;48.766;9.176;2023-01-28T08:50:49;99169.84;;;1.34;89.39
49611;BME280;35515;48.766;9.176;2023-01-28T08:53:17;99172.56;;;1.44;88.79
49611;BME280;35515;48.766;9.176;2023-01-28T08:55:45;99174.41;;;1.43;89.13
49611;BME280;35515;48.766;9.176;2023-01-28T08:58:14;99174.25;;;1.45;88.46
49611;BME280;35515;48.766;9.176;2023-01-28T09:00:42;99180.19;;;1.70;87.71
49611;BME280;35515;48.766;9.176;2023-01-28T09:03:09;99180.91;;;1.50;87.05
49611;BME280;35515;48.766;9.176;2023-01-28T09:05:36;99189.59;;;1.43;88.02
49611;BME280;35515;48.766;9.176;2023-01-28T09:08:04;99181.75;;;1.51;87.79
49611;BME280;35515;48.766;9.176;2023-01-28T09:10:32;99184.94;;;1.66;87.37
49611;BME280;35515;48.766;9.176;2023-01-28T09:13:01;99185.22;;;1.63;87.75
49611;BME280;35515;48.766;9.176;2023-01-28T09:15:31;99177.44;;;1.60;87.32
49611;BME280;35515;48.766;9.176;2023-01-28T09:17:57;99182.91;;;1.79;85.99
49611;BME280;35515;48.766;9.176;2023-01-28T09:20:24;99188.25;;;1.79;86.26
49611;BME280;35515;48.766;9.176;2023-01-28T09:22:50;99182.53;;;1.84;85.14
49611;BME280;35515;48.766;9.176;2023-01-28T09:25:17;99179.66;;;1.76;85.44
49611;BME280;35515;48.766;9.176;2023-01-28T09:27:43;99192.22;;;1.64;86.50
49611;BME280;35515;48.766;9.176;2023-01-28T09:30:10;99199.69;;;1.60;86.46
49611;BME280;35515;48.766;9.176;2023-01-28T09:32:39;99211.84;;;1.53;86.63
49611;BME280;35515;48.766;9.176;2023-01-28T09:35:06;99206.44;;;1.43;87.74
49611;BME280;35515;48.766;9.176;2023-01-28T09:37:32;99212.44;;;1.57;86.82
49611;BME280;35515;48.766;9.176;2023-01-28T09:39:59;99211.19;;;1.61;86.52
49611;BME280;35515;48.766;9.176;2023-01-28T09:42:34;99207.69;;;1.60;86.17
49611;BME280;35515;48.766;9.176;2023-01-28T09:45:10;99219.84;;;1.74;85.78
49611;BME280;35515;48.766;9.176;2023-01-28T09:47:43;99216.59;;;1.92;85.33
49611;BME280;35515;48.766;9.176;2023-01-28T09:50:15;99220.50;;;1.88;84.95
49611;BME280;35515;48.766;9.176;2023-01-28T09:52:43;99220.72;;;1.75;85.19
49611;BME280;35515;48.766;9.176;2023-01-28T09:55:18;99224.09;;;1.77;85.57
49611;BME280;35515;48.766;9.176;2023-01-28T09:57:48;99218.28;;;1.72;85.67
49611;BME280;35515;48.766;9.176;2023-01-28T10:00:18;99218.44;;;1.70;85.77
49611;BME280;35515;48.766;9.176;2023-01-28T10:03:10;99229.38;;;1.67;85.69
49611;BME280;35515;48.766;9.176;2023-01-28T10:05:45;99223.00;;;1.79;84.35
49611;BME280;35515;48.766;9.176;2023-01-28T10:08:24;99218.44;;;1.70;85.02
49611;BME280;35515;48.766;9.176;2023-01-28T10:11:00;99226.56;;;1.90;84.46
49611;BME280;35515;48.766;9.176;2023-01-28T10:13:35;99225.97;;;1.86;84.97
49611;BME280;35515;48.766;9.176;2023-01-28T10:16:14;99223.31;;;1.86;85.02
49611;BME280;35515;48.766;9.176;2023-01-28T10:18:49;99205.97;;;1.80;85.02
49611;BME280;35515;48.766;9.176;2023-01-28T10:21:20;99212.31;;;1.79;84.43
49611;BME280;35515;48.766;9.176;2023-01-28T10:23:55;99207.53;;;2.04;88.19
49611;BME280;35515;48.766;9.176;2023-01-28T10:26:29;99204.84;;;2.04;84.39
49611;BME280;35515;48.766;9.176;2023-01-28T10:29:02;99205.09;;;2.01;82.83
49611;BME280;35515;48.766;9.176;2023-01-28T10:31:32;99197.06;;;2.01;83.00
49611;BME280;35515;48.766;9.176;2023-01-28T10:34:02;99199.97;;;2.09;84.12
49611;BME280;35515;48.766;9.176;2023-01-28T10:36:28;99196.41;;;2.09;81.49
49611;BME280;35515;48.766;9.176;2023-01-28T10:38:55;99197.19;;;1.90;82.46
49611;BME280;35515;48.766;9.176;2023-01-28T10:41:22;99201.94;;;1.86;83.12
49611;BME280;35515;48.766;9.176;2023-01-28T10:43:50;99200.19;;;1.75;83.85
49611;BME280;35515;48.766;9.176;2023-01-28T10:46:20;99194.72;;;1.77;84.48
49611;BME280;35515;48.766;9.176;2023-01-28T10:48:54;99193.88;;;1.76;84.39
49611;BME280;35515;48.766;9.176;2023-01-28T10:51:31;99196.31;;;1.89;84.27
49611;BME280;35515;48.766;9.176;2023-01-28T10:53:58;99193.47;;;1.81;84.71
49611;BME280;35515;48.766;9.176;2023-01-28T10:56:26;99191.28;;;1.96;85.15
49611;BME280;35515;48.766;9.176;2023-01-28T10:58:57;99203.44;;;2.00;83.96
49611;BME280;35515;48.766;9.176;2023-01-28T11:01:38;99195.19;;;1.92;85.24
49611;BME280;35515;48.766;9.176;2023-01-28T11:04:05;99198.88;;;1.91;84.96
49611;BME280;35515;48.766;9.176;2023-01-28T11:06:33;99192.81;;;2.20;83.92
49611;BME280;35515;48.766;9.176;2023-01-28T11:09:00;99208.22;;;2.06;84.12
49611;BME280;35515;48.766;9.176;2023-01-28T11:11:27;99205.41;;;2.08;83.77
49611;BME280;35515;48.766;9.176;2023-01-28T11:13:54;99195.19;;;1.92;84.64
49611;BME280;35515;48.766;9.176;2023-01-28T11:16:23;99198.81;;;1.81;85.05
49611;BME280;35515;48.766;9.176;2023-01-28T11:18:53;99202.75;;;1.87;85.17
49611;BME280;35515;48.766;9.176;2023-01-28T11:21:21;99199.13;;;1.88;84.95
49611;BME280;35515;48.766;9.176;2023-01-28T11:23:53;99212.41;;;1.99;83.74
49611;BME280;35515;48.766;9.176;2023-01-28T11:26:23;99200.97;;;1.87;84.11
49611;BME280;35515;48.766;9.176;2023-01-28T11:28:50;99201.09;;;1.86;84.05
49611;BME280;35515;48.766;9.176;2023-01-28T11:31:19;99207.59;;;1.93;84.31
49611;BME280;35515;48.766;9.176;2023-01-28T11:33:49;99206.78;;;2.02;84.61
49611;BME280;35515;48.766;9.176;2023-01-28T11:36:20;99215.25;;;2.07;83.59
49611;BME280;35515;48.766;9.176;2023-01-28T11:38:49;99206.91;;;2.22;82.30
49611;BME280;35515;48.766;9.176;2023-01-28T11:41:18;99207.78;;;2.01;83.94
49611;BME280;35515;48.766;9.176;2023-01-28T11:43:48;99207.41;;;2.15;83.14
49611;BME280;35515;48.766;9.176;2023-01-28T11:46:39;99202.19;;;2.04;83.47
49611;BME280;35515;48.766;9.176;2023-01-28T11:49:17;99201.44;;;2.02;82.82
49611;BME280;35515;48.766;9.176;2023-01-28T11:51:52;99203.16;;;2.03;82.85
49611;BME280;35515;48.766;9.176;2023-01-28T11:54:43;99206.66;;;2.04;82.64
49611;BME280;35515;48.766;9.176;2023-01-28T11:57:32;99209.03;;;1.97;83.03
49611;BME280;35515;48.766;9.176;2023-01-28T12:00:23;99201.97;;;1.96;82.81
49611;BME280;35515;48.766;9.176;2023-01-28T12:02:53;99205.16;;;2.11;82.54
49611;BME280;35515;48.766;9.176;2023-01-28T12:05:45;99201.94;;;2.17;81.42
49611;BME280;35515;48.766;9.176;2023-01-28T12:08:20;99202.63;;;2.09;81.81
49611;BME280;35515;48.766;9.176;2023-01-28T12:11:04;99202.88;;;2.06;81.77
49611;BME280;35515;48.766;9.176;2023-01-28T12:13:47;99204.88;;;2.14;81.44
49611;BME280;35515;48.766;9.176;2023-01-28T12:19:24;99202.69;;;2.29;81.13
49611;BME280;35515;48.766;9.176;2023-01-28T12:22:21;99211.38;;;2.21;81.59
49611;BME280;35515;48.766;9.176;2023-01-28T12:25:04;99212.94;;;2.24;80.76
49611;BME280;35515;48.766;9.176;2023-01-28T12:27:42;99204.56;;;2.07;80.76
49611;BME280;35515;48.766;9.176;2023-01-28T12:30:21;99202.97;;;2.26;82.82
49611;BME280;35515;48.766;9.176;2023-01-28T12:33:00;99198.94;;;2.10;81.51
49611;BME280;35515;48.766;9.176;2023-01-28T12:35:42;99213.03;;;2.12;80.52
49611;BME280;35515;48.766;9.176;2023-01-28T12:38:22;99205.41;;;2.08;81.99
49611;BME280;35515;48.766;9.176;2023-01-28T12:40:58;99207.78;;;2.01;82.15
49611;BME280;35515;48.766;9.176;2023-01-28T12:43:40;99207.53;;;2.04;82.47
49611;BME280;35515;48.766;9.176;2023-01-28T12:46:15;99200.38;;;2.14;81.23
49611;BME280;35515;48.766;9.176;2023-01-28T12:48:46;99199.84;;;2.21;81.34
49611;BME280;35515;48.766;9.176;2023-01-28T12:51:17;99197.91;;;2.23;81.06
49611;BME280;35515;48.766;9.176;2023-01-28T12:53:47;99193.09;;;2.16;81.72
49611;BME280;35515;48.766;9.176;2023-01-28T12:56:17;99201.44;;;2.02;82.69
49611;BME280;35515;48.766;9.176;2023-01-28T12:58:48;99199.63;;;2.03;82.95
49611;BME280;35515;48.766;9.176;2023-01-28T13:01:21;99186.97;;;2.05;83.14
49611;BME280;35515;48.766;9.176;2023-01-28T13:03:54;99205.09;;;2.01;83.30
49611;BME280;35515;48.766;9.176;2023-01-28T13:06:26;99188.13;;;2.12;82.51
49611;BME280;35515;48.766;9.176;2023-01-28T13:08:57;99192.00;;;2.29;84.07
49611;BME280;35515;48.766;9.176;2023-01-28T13:11:31;99194.03;;;2.06;82.57
49611;BME280;35515;48.766;9.176;2023-01-28T13:13:59;99190.28;;;2.28;82.00
49611;BME280;35515;48.766;9.176;2023-01-28T13:16:27;99194.06;;;2.15;82.46
49611;BME280;35515;48.766;9.176;2023-01-28T13:19:05;99195.00;;;2.05;83.32
49611;BME280;35515;48.766;9.176;2023-01-28T13:21:34;99197.69;;;2.14;84.17
49611;BME280;35515;48.766;9.176;2023-01-28T13:24:21;99191.03;;;1.99;84.92
49611;BME280;35515;48.766;9.176;2023-01-28T13:26:49;99210.53;;;1.90;86.30
49611;BME280;35515;48.766;9.176;2023-01-28T13:29:27;99196.00;;;1.82;87.25
49611;BME280;35515;48.766;9.176;2023-01-28T13:31:58;99190.13;;;1.89;87.46